Time;durP1;ratioP1;P1;durP2;ratioP2;P2;SDS_P1;SDS_P2;PMS_P1;PMS_P2;Temp;Humidity;BMP_temperature;BMP_pressure;BME280_temperature;BME280_humidity;BME280_pressure;Samples;Min_cycle;Max_cycle;Signal;HPM_P1;HPM_P2
2022/10/27 00:01:48;;;;;;;;;;;;;;;19.30;100.00;99648.28;5039552;28;19924;-44
2022/10/27 00:04:14;;;;;;;;;;;;;;;19.53;100.00;99647.78;5039927;28;19920;-45
2022/10/27 00:06:39;;;;;;;;;;;;;;;19.59;100.00;99650.03;5041371;28;19928;-45
2022/10/27 00:09:04;;;;;;;;;;;;;;;19.25;100.00;99650.28;5040772;28;19920;-44
2022/10/27 00:11:29;;;;;;;;;;;;;;;18.80;100.00;99655.44;5040749;28;19920;-45
2022/10/27 00:13:54;;;;;;;;;;;;;;;18.98;100.00;99664.00;5039135;28;19928;-45
2022/10/27 00:16:20;;;;;;;;;;;;;;;19.50;100.00;99650.59;5040277;28;19925;-45
2022/10/27 00:18:45;;;;;;;;;;;;;;;19.41;100.00;99646.72;5039205;28;19927;-45
2022/10/27 00:21:11;;;;;;;;;;;;;;;19.46;100.00;99643.84;5040518;28;19967;-45
2022/10/27 00:23:37;;;;;;;;;;;;;;;18.98;100.00;99654.41;5039431;28;19921;-45
2022/10/27 00:26:02;;;;;;;;;;;;;;;19.57;100.00;99649.28;5039372;28;19931;-45
2022/10/27 00:28:28;;;;;;;;;;;;;;;18.98;100.00;99659.63;5036422;28;19920;-44
2022/10/27 00:31:00;;;;;;;;;;;;;;;19.23;100.00;99658.25;5047223;28;19920;-44
2022/10/27 00:33:25;;;;;;;;;;;;;;;19.09;100.00;99656.41;5040175;28;19924;-44
2022/10/27 00:35:50;;;;;;;;;;;;;;;18.88;100.00;99668.88;5039798;28;19926;-45
2022/10/27 00:38:16;;;;;;;;;;;;;;;18.52;100.00;99677.78;5054739;28;19939;-45
2022/10/27 00:40:41;;;;;;;;;;;;;;;18.37;100.00;99679.44;5037845;28;19920;-44
2022/10/27 00:43:25;;;;;;;;;;;;;;;18.42;100.00;99675.75;5039791;28;19932;-44
2022/10/27 00:45:51;;;;;;;;;;;;;;;18.06;100.00;99684.56;5039071;28;19929;-45
2022/10/27 00:48:16;;;;;;;;;;;;;;;18.18;100.00;99690.00;5038769;28;19925;-44
2022/10/27 00:50:41;;;;;;;;;;;;;;;18.28;100.00;99699.94;5039081;28;19960;-44
2022/10/27 00:53:06;;;;;;;;;;;;;;;18.27;100.00;99703.47;5039652;28;19974;-44
2022/10/27 00:55:32;;;;;;;;;;;;;;;18.38;100.00;99696.78;5038232;28;19956;-46
2022/10/27 00:57:59;;;;;;;;;;;;;;;18.45;100.00;99701.66;5039752;28;19932;-44
2022/10/27 01:00:24;;;;;;;;;;;;;;;18.29;100.00;99712.06;5036118;28;20321;-44
2022/10/27 01:02:49;;;;;;;;;;;;;;;18.44;100.00;99699.97;5037764;28;19935;-44
2022/10/27 01:05:16;;;;;;;;;;;;;;;18.25;100.00;99700.97;5040138;28;19921;-44
2022/10/27 01:07:41;;;;;;;;;;;;;;;18.08;100.00;99708.81;5038010;28;19966;-43
2022/10/27 01:10:06;;;;;;;;;;;;;;;18.53;100.00;99702.09;5036873;28;19920;-44
2022/10/27 01:12:32;;;;;;;;;;;;;;;18.12;100.00;99702.50;5039474;28;19965;-44
2022/10/27 01:14:57;;;;;;;;;;;;;;;18.00;100.00;99714.41;5039815;28;20313;-45
2022/10/27 01:17:45;;;;;;;;;;;;;;;18.45;100.00;99701.66;5036662;28;20303;-44
2022/10/27 01:20:29;;;;;;;;;;;;;;;18.25;100.00;99702.72;5018291;28;19925;-44
2022/10/27 01:22:54;;;;;;;;;;;;;;;18.94;100.00;99699.88;5038600;28;19917;-44
2022/10/27 01:25:52;;;;;;;;;;;;;;;18.49;100.00;99695.34;5040134;28;19947;-44
2022/10/27 01:28:20;;;;;;;;;;;;;;;18.54;100.00;99695.94;5023546;28;19917;-44
2022/10/27 01:30:51;;;;;;;;;;;;;;;19.09;100.00;99698.19;5039131;28;19912;-44
2022/10/27 01:33:19;;;;;;;;;;;;;;;18.81;100.00;99691.03;5038069;28;19920;-43
2022/10/27 01:35:49;;;;;;;;;;;;;;;19.27;100.00;99695.44;5035424;28;19968;-44
2022/10/27 01:38:26;;;;;;;;;;;;;;;18.56;100.00;99697.53;5036593;28;20417;-44
2022/10/27 01:40:51;;;;;;;;;;;;;;;18.89;100.00;99701.91;5036038;28;20366;-44
2022/10/27 01:43:17;;;;;;;;;;;;;;;18.85;100.00;99705.59;5038988;28;19973;-44
2022/10/27 01:45:42;;;;;;;;;;;;;;;18.74;100.00;99708.75;5036382;28;19975;-44
2022/10/27 01:48:07;;;;;;;;;;;;;;;18.39;100.00;99708.88;5035136;28;19967;-44
2022/10/27 01:50:33;;;;;;;;;;;;;;;18.41;100.00;99711.44;5036271;28;19917;-44
2022/10/27 01:52:58;;;;;;;;;;;;;;;18.94;100.00;99706.88;5038711;28;20000;-44
2022/10/27 01:55:35;;;;;;;;;;;;;;;18.94;100.00;99704.25;5038998;28;20443;-44
2022/10/27 01:58:03;;;;;;;;;;;;;;;18.85;100.00;99709.97;5037820;28;19928;-44
2022/10/27 02:00:28;;;;;;;;;;;;;;;19.17;100.00;99698.59;5037314;28;19959;-43
2022/10/27 02:02:58;;;;;;;;;;;;;;;19.35;100.00;99693.25;5019934;28;19925;-44
2022/10/27 02:05:30;;;;;;;;;;;;;;;19.14;100.00;99690.94;5036740;28;19918;-44
2022/10/27 02:07:59;;;;;;;;;;;;;;;19.16;100.00;99699.53;5037650;28;20003;-44
2022/10/27 02:10:26;;;;;;;;;;;;;;;19.11;100.00;99698.94;5036175;28;20336;-44
2022/10/27 02:12:51;;;;;;;;;;;;;;;19.08;100.00;99695.66;5038276;28;20014;-44
2022/10/27 02:15:18;;;;;;;;;;;;;;;18.55;100.00;99702.88;5045224;28;19967;-44
2022/10/27 02:17:44;;;;;;;;;;;;;;;18.43;100.00;99713.94;5036588;28;19936;-44
2022/10/27 02:20:17;;;;;;;;;;;;;;;18.09;100.00;99710.50;5036066;28;19924;-44
2022/10/27 02:22:42;;;;;;;;;;;;;;;18.09;100.00;99718.31;5038324;28;19925;-44
2022/10/27 02:25:08;;;;;;;;;;;;;;;18.46;100.00;99714.63;5035523;28;19921;-43
2022/10/27 02:27:34;;;;;;;;;;;;;;;18.57;100.00;99709.69;5036822;28;19927;-44
2022/10/27 02:29:59;;;;;;;;;;;;;;;18.04;100.00;99707.28;5035459;28;19924;-44
2022/10/27 02:32:24;;;;;;;;;;;;;;;18.25;100.00;99716.59;5037100;28;20304;-44
2022/10/27 02:34:50;;;;;;;;;;;;;;;18.31;100.00;99711.03;5035313;28;19921;-43
2022/10/27 02:37:17;;;;;;;;;;;;;;;18.05;100.00;99712.41;5042378;28;19928;-44
2022/10/27 02:39:42;;;;;;;;;;;;;;;18.45;100.00;99710.34;5038131;28;19963;-44
2022/10/27 02:42:07;;;;;;;;;;;;;;;17.97;100.00;99724.97;5036041;28;20033;-44
2022/10/27 02:44:32;;;;;;;;;;;;;;;17.80;100.00;99719.78;5038637;28;19953;-43
2022/10/27 02:46:58;;;;;;;;;;;;;;;17.72;100.00;99727.94;5037585;28;20193;-43
2022/10/27 02:49:23;;;;;;;;;;;;;;;17.57;100.00;99734.78;5036070;28;19960;-44
2022/10/27 02:51:48;;;;;;;;;;;;;;;17.38;100.00;99741.78;5037212;28;19948;-44
2022/10/27 02:54:13;;;;;;;;;;;;;;;18.12;100.00;99736.41;5037900;28;19967;-44
2022/10/27 02:56:38;;;;;;;;;;;;;;;18.12;100.00;99729.41;5037562;28;20323;-43
2022/10/27 02:59:04;;;;;;;;;;;;;;;18.05;100.00;99717.63;5037175;28;19985;-44
2022/10/27 03:01:29;;;;;;;;;;;;;;;17.98;100.00;99724.91;5037195;28;20400;-44
2022/10/27 03:03:54;;;;;;;;;;;;;;;18.10;100.00;99725.22;5036759;28;20393;-44
2022/10/27 03:06:19;;;;;;;;;;;;;;;19.16;100.00;99707.34;5035170;28;20969;-44
2022/10/27 03:08:45;;;;;;;;;;;;;;;18.85;100.00;99695.16;5036593;28;20761;-43
2022/10/27 03:11:10;;;;;;;;;;;;;;;18.98;100.00;99698.78;5037389;28;20401;-43
2022/10/27 03:13:35;;;;;;;;;;;;;;;19.19;100.00;99704.56;5036728;28;19928;-44
2022/10/27 03:16:00;;;;;;;;;;;;;;;19.29;100.00;99693.59;5036997;28;19917;-44
2022/10/27 03:18:25;;;;;;;;;;;;;;;19.01;100.00;99690.75;5035001;28;19925;-44
2022/10/27 03:20:51;;;;;;;;;;;;;;;19.09;100.00;99697.31;5036719;28;19927;-44
2022/10/27 03:23:16;;;;;;;;;;;;;;;18.49;100.00;99700.56;5036534;28;19924;-43
2022/10/27 03:25:43;;;;;;;;;;;;;;;18.59;100.00;99700.00;5037755;28;20003;-44
2022/10/27 03:28:11;;;;;;;;;;;;;;;18.42;100.00;99712.25;5040185;28;19920;-43
2022/10/27 03:30:37;;;;;;;;;;;;;;;17.58;100.00;99720.81;5039665;28;19995;-44
2022/10/27 03:33:02;;;;;;;;;;;;;;;17.59;100.00;99729.50;5041246;28;20154;-44
2022/10/27 03:35:28;;;;;;;;;;;;;;;17.98;100.00;99735.34;5040766;28;19974;-43
2022/10/27 03:37:54;;;;;;;;;;;;;;;17.85;100.00;99726.44;5040100;28;19927;-44
2022/10/27 03:40:19;;;;;;;;;;;;;;;17.76;100.00;99737.31;5039370;28;20388;-45
2022/10/27 03:42:44;;;;;;;;;;;;;;;17.67;100.00;99740.38;5040598;28;19927;-44
2022/10/27 03:45:10;;;;;;;;;;;;;;;17.93;100.00;99736.50;5041908;28;20015;-44
2022/10/27 03:47:35;;;;;;;;;;;;;;;17.86;100.00;99735.09;5040403;28;20091;-44
2022/10/27 03:50:00;;;;;;;;;;;;;;;17.55;100.00;99742.66;5039721;28;19921;-44
2022/10/27 03:52:26;;;;;;;;;;;;;;;17.85;100.00;99746.47;5040801;28;19986;-44
2022/10/27 03:54:51;;;;;;;;;;;;;;;17.52;100.00;99742.81;5039036;28;19921;-44
2022/10/27 03:57:16;;;;;;;;;;;;;;;17.46;100.00;99748.31;5041332;28;19990;-44
2022/10/27 03:59:41;;;;;;;;;;;;;;;17.69;100.00;99747.19;5040114;28;19921;-44
2022/10/27 04:02:07;;;;;;;;;;;;;;;17.32;100.00;99743.78;5040414;28;19986;-44
2022/10/27 04:04:32;;;;;;;;;;;;;;;17.84;100.00;99744.78;5039594;28;19920;-44
2022/10/27 04:06:57;;;;;;;;;;;;;;;17.80;100.00;99738.84;5041312;28;19917;-44
2022/10/27 04:09:22;;;;;;;;;;;;;;;17.21;100.00;99734.78;5038977;28;19920;-44
2022/10/27 04:11:47;;;;;;;;;;;;;;;17.46;100.00;99737.91;5053334;28;19920;-44
2022/10/27 04:14:13;;;;;;;;;;;;;;;17.78;100.00;99738.91;5039473;28;19940;-44
2022/10/27 04:16:38;;;;;;;;;;;;;;;17.27;100.00;99737.13;5040913;28;19924;-44
2022/10/27 04:19:04;;;;;;;;;;;;;;;17.19;100.00;99739.22;5039650;28;19967;-45
2022/10/27 04:21:29;;;;;;;;;;;;;;;17.56;100.00;99749.56;5041489;28;20324;-44
2022/10/27 04:23:54;;;;;;;;;;;;;;;17.51;100.00;99750.69;5041466;28;20290;-43
2022/10/27 04:26:19;;;;;;;;;;;;;;;17.94;100.00;99741.63;5041338;28;20272;-44
2022/10/27 04:28:44;;;;;;;;;;;;;;;17.88;100.00;99749.78;5039879;28;20318;-44
2022/10/27 04:31:10;;;;;;;;;;;;;;;17.90;100.00;99742.72;5040482;28;20357;-44
2022/10/27 04:33:35;;;;;;;;;;;;;;;17.43;100.00;99740.66;5042248;28;19916;-44
2022/10/27 04:36:00;;;;;;;;;;;;;;;18.09;100.00;99736.56;5039972;28;19920;-44
2022/10/27 04:38:26;;;;;;;;;;;;;;;17.90;100.00;99737.50;5039474;28;20027;-44
2022/10/27 04:40:51;;;;;;;;;;;;;;;17.44;100.00;99741.50;5040721;28;20348;-44
2022/10/27 04:43:16;;;;;;;;;;;;;;;17.20;100.00;99740.94;5041562;28;19944;-44
2022/10/27 04:45:41;;;;;;;;;;;;;;;17.71;100.00;99747.13;5041673;28;19920;-44
2022/10/27 04:48:06;;;;;;;;;;;;;;;17.87;100.00;99747.22;5041265;28;20281;-44
2022/10/27 04:50:32;;;;;;;;;;;;;;;17.61;100.00;99736.31;5039973;28;19946;-44
2022/10/27 04:53:01;;;;;;;;;;;;;;;17.65;100.00;99740.47;5039719;28;19913;-44
2022/10/27 04:55:27;;;;;;;;;;;;;;;17.79;100.00;99729.34;5037646;28;19924;-44
2022/10/27 04:57:52;;;;;;;;;;;;;;;17.45;100.00;99741.44;5040254;28;19921;-44
2022/10/27 05:00:18;;;;;;;;;;;;;;;17.31;100.00;99736.03;5039742;28;19916;-44
2022/10/27 05:02:43;;;;;;;;;;;;;;;17.30;100.00;99735.19;5038830;28;19921;-43
2022/10/27 05:05:08;;;;;;;;;;;;;;;17.25;100.00;99742.38;5053909;28;20007;-44
2022/10/27 05:07:33;;;;;;;;;;;;;;;17.88;100.00;99744.56;5040782;28;19917;-44
2022/10/27 05:09:59;;;;;;;;;;;;;;;17.67;100.00;99737.75;5039352;28;19920;-43
2022/10/27 05:12:24;;;;;;;;;;;;;;;17.81;100.00;99737.94;5040211;28;19924;-45
2022/10/27 05:14:49;;;;;;;;;;;;;;;17.22;100.00;99731.25;5038356;28;19928;-45
2022/10/27 05:17:14;;;;;;;;;;;;;;;17.62;100.00;99737.16;5040418;28;20265;-44
2022/10/27 05:19:39;;;;;;;;;;;;;;;17.85;100.00;99736.88;5038968;28;20016;-43
2022/10/27 05:22:05;;;;;;;;;;;;;;;17.56;100.00;99733.94;5039534;28;20007;-44
2022/10/27 05:24:30;;;;;;;;;;;;;;;17.35;100.00;99728.00;5039233;28;20039;-45
2022/10/27 05:26:55;;;;;;;;;;;;;;;17.29;100.00;99730.06;5038844;28;19920;-44
2022/10/27 05:29:20;;;;;;;;;;;;;;;17.91;100.00;99728.75;5039197;28;19924;-44
2022/10/27 05:31:46;;;;;;;;;;;;;;;17.54;100.00;99722.75;5040088;28;19917;-44
2022/10/27 05:34:11;;;;;;;;;;;;;;;17.51;100.00;99717.66;5039570;28;19920;-44
2022/10/27 05:36:36;;;;;;;;;;;;;;;17.42;100.00;99715.53;5039915;28;19916;-44
2022/10/27 05:39:01;;;;;;;;;;;;;;;17.36;100.00;99723.66;5038614;28;19917;-44
2022/10/27 05:41:26;;;;;;;;;;;;;;;17.54;100.00;99720.16;5037444;28;19947;-43
2022/10/27 05:43:52;;;;;;;;;;;;;;;17.30;100.00;99716.97;5039875;28;19928;-43
2022/10/27 05:46:17;;;;;;;;;;;;;;;17.65;100.00;99721.38;5038830;28;19916;-44
2022/10/27 05:48:42;;;;;;;;;;;;;;;17.33;100.00;99718.56;5038129;28;19921;-44
2022/10/27 05:51:07;;;;;;;;;;;;;;;17.55;100.00;99716.59;5039121;28;19917;-44
2022/10/27 05:53:33;;;;;;;;;;;;;;;18.03;100.00;99705.59;5054209;28;19916;-44
2022/10/27 05:55:58;;;;;;;;;;;;;;;17.52;100.00;99708.97;5039268;28;19923;-44
2022/10/27 05:58:23;;;;;;;;;;;;;;;17.61;100.00;99714.63;5039066;28;19916;-44
2022/10/27 06:00:48;;;;;;;;;;;;;;;17.30;100.00;99713.53;5038014;28;19925;-44
2022/10/27 06:03:20;;;;;;;;;;;;;;;17.81;100.00;99711.88;5038817;28;19927;-44
2022/10/27 06:05:46;;;;;;;;;;;;;;;17.39;100.00;99705.25;5039345;28;19924;-44
2022/10/27 06:08:11;;;;;;;;;;;;;;;17.95;100.00;99706.84;5037395;28;19917;-44
2022/10/27 06:10:36;;;;;;;;;;;;;;;18.01;100.00;99703.06;5038726;28;19916;-44
2022/10/27 06:13:05;;;;;;;;;;;;;;;17.55;100.00;99695.78;5038332;28;21176;-44
2022/10/27 06:15:30;;;;;;;;;;;;;;;17.42;100.00;99699.06;5039173;28;19920;-44
2022/10/27 06:17:56;;;;;;;;;;;;;;;16.90;100.00;99718.88;5037466;28;19921;-44
2022/10/27 06:20:21;;;;;;;;;;;;;;;17.41;100.00;99713.84;5038152;28;20024;-44
2022/10/27 06:22:46;;;;;;;;;;;;;;;17.51;100.00;99720.28;5038377;28;19975;-44
2022/10/27 06:25:11;;;;;;;;;;;;;;;17.66;100.00;99716.09;5036235;28;19979;-44
2022/10/27 06:27:37;;;;;;;;;;;;;;;17.56;100.00;99713.09;5038414;28;19940;-44
2022/10/27 06:30:02;;;;;;;;;;;;;;;17.13;100.00;99709.97;5038372;28;19943;-44
2022/10/27 06:32:27;;;;;;;;;;;;;;;17.02;100.00;99722.66;5038494;28;19970;-44
2022/10/27 06:34:52;;;;;;;;;;;;;;;17.84;100.00;99727.38;5038340;28;20432;-47
2022/10/27 06:37:18;;;;;;;;;;;;;;;17.76;100.00;99724.28;5038250;28;20366;-44
2022/10/27 06:39:43;;;;;;;;;;;;;;;17.63;100.00;99728.41;5038024;28;20450;-44
2022/10/27 06:42:08;;;;;;;;;;;;;;;17.56;100.00;99726.13;5038238;28;20447;-44
2022/10/27 06:44:33;;;;;;;;;;;;;;;17.37;100.00;99727.94;5038749;28;19966;-44
2022/10/27 06:46:58;;;;;;;;;;;;;;;17.60;100.00;99739.00;5038708;28;19920;-44
2022/10/27 06:49:24;;;;;;;;;;;;;;;17.59;100.00;99729.50;5037706;28;19921;-44
2022/10/27 06:51:49;;;;;;;;;;;;;;;17.72;100.00;99727.94;5038831;28;19983;-44
2022/10/27 06:54:14;;;;;;;;;;;;;;;17.44;100.00;99724.09;5038494;28;19916;-44
2022/10/27 06:56:39;;;;;;;;;;;;;;;17.95;100.00;99732.91;5038812;28;20388;-44
2022/10/27 06:59:04;;;;;;;;;;;;;;;18.10;100.00;99720.00;5038181;28;20373;-44
2022/10/27 07:01:30;;;;;;;;;;;;;;;17.48;100.00;99725.66;5041641;28;19931;-44
2022/10/27 07:03:56;;;;;;;;;;;;;;;17.46;100.00;99737.06;5042564;28;19928;-44
2022/10/27 07:06:21;;;;;;;;;;;;;;;17.76;100.00;99732.94;5042973;28;19917;-45
2022/10/27 07:08:47;;;;;;;;;;;;;;;17.65;100.00;99734.38;5042121;28;19959;-44
2022/10/27 07:11:12;;;;;;;;;;;;;;;17.74;100.00;99729.59;5042150;28;19917;-44
2022/10/27 07:13:37;;;;;;;;;;;;;;;17.44;100.00;99726.72;5042430;28;20370;-45
2022/10/27 07:16:02;;;;;;;;;;;;;;;17.86;100.00;99733.38;5041605;28;19924;-45
2022/10/27 07:18:28;;;;;;;;;;;;;;;17.93;100.00;99732.13;5041315;28;20004;-44
2022/10/27 07:20:53;;;;;;;;;;;;;;;18.21;100.00;99735.94;5040278;28;19989;-43
2022/10/27 07:23:18;;;;;;;;;;;;;;;18.22;100.00;99731.56;5041959;28;19925;-44
2022/10/27 07:25:46;;;;;;;;;;;;;;;18.17;100.00;99734.41;5040858;28;20345;-44
2022/10/27 07:28:11;;;;;;;;;;;;;;;18.17;100.00;99723.97;5039902;28;19955;-44
2022/10/27 07:30:38;;;;;;;;;;;;;;;18.06;100.00;99721.91;5041904;28;19948;-45
2022/10/27 07:33:03;;;;;;;;;;;;;;;18.32;100.00;99727.56;5041978;28;20023;-44
2022/10/27 07:35:28;;;;;;;;;;;;;;;18.62;100.00;99714.66;5041152;28;20011;-45
2022/10/27 07:37:54;;;;;;;;;;;;;;;18.23;100.00;99723.66;5042227;28;19917;-44
2022/10/27 07:40:20;;;;;;;;;;;;;;;18.89;100.00;99724.56;5040347;28;19947;-44
2022/10/27 07:42:46;;;;;;;;;;;;;;;18.91;100.00;99725.31;5042052;28;19917;-44
2022/10/27 07:45:12;;;;;;;;;;;;;;;18.71;100.00;99719.38;5041746;28;20423;-44
2022/10/27 07:47:37;;;;;;;;;;;;;;;18.61;100.00;99720.81;5040114;28;19982;-44
2022/10/27 07:50:03;;;;;;;;;;;;;;;19.03;100.00;99714.19;5041794;28;20516;-44
2022/10/27 07:52:28;;;;;;;;;;;;;;;18.59;100.00;99720.03;5041391;28;19939;-44
2022/10/27 07:54:53;;;;;;;;;;;;;;;19.02;100.00;99722.94;5041398;28;19928;-45
2022/10/27 07:57:18;;;;;;;;;;;;;;;19.10;100.00;99709.47;5041528;28;19920;-44
2022/10/27 07:59:44;;;;;;;;;;;;;;;19.37;100.00;99707.06;5041034;28;19913;-45
2022/10/27 08:02:10;;;;;;;;;;;;;;;19.06;100.00;99708.78;5039998;28;19929;-45
2022/10/27 08:04:35;;;;;;;;;;;;;;;19.20;100.00;99708.00;5042169;28;19917;-44
2022/10/27 08:07:00;;;;;;;;;;;;;;;19.07;100.00;99700.03;5040176;28;19974;-45
2022/10/27 08:09:25;;;;;;;;;;;;;;;19.76;100.00;99697.88;5039997;28;19967;-45
2022/10/27 08:11:51;;;;;;;;;;;;;;;19.55;100.00;99705.19;5038436;28;19924;-44
2022/10/27 08:14:16;;;;;;;;;;;;;;;19.45;100.00;99694.41;5040999;28;19927;-44
2022/10/27 08:16:41;;;;;;;;;;;;;;;19.75;100.00;99691.81;5040675;28;19916;-44
2022/10/27 08:19:06;;;;;;;;;;;;;;;19.72;100.00;99685.91;5040887;28;19927;-45
2022/10/27 08:21:31;;;;;;;;;;;;;;;20.46;100.00;99671.88;5041390;28;19948;-45
2022/10/27 08:23:57;;;;;;;;;;;;;;;20.20;100.00;99671.66;5041222;28;19963;-45
2022/10/27 08:26:22;;;;;;;;;;;;;;;19.85;100.00;99669.41;5039222;28;19955;-45
2022/10/27 08:28:47;;;;;;;;;;;;;;;20.27;100.00;99666.91;5039185;28;19963;-45
2022/10/27 08:31:13;;;;;;;;;;;;;;;20.45;100.00;99655.31;5040805;28;19990;-46
2022/10/27 08:33:38;;;;;;;;;;;;;;;20.41;100.00;99658.19;5040872;28;20004;-45
2022/10/27 08:36:03;;;;;;;;;;;;;;;20.27;100.00;99649.47;5041317;28;19917;-45
2022/10/27 08:38:31;;;;;;;;;;;;;;;20.80;100.00;99639.19;5040186;28;19928;-45
2022/10/27 08:41:06;;;;;;;;;;;;;;;20.63;100.00;99647.28;5039388;28;20497;-45
2022/10/27 08:43:47;;;;;;;;;;;;;;;20.76;100.00;99642.94;5039926;28;19928;-46
2022/10/27 08:46:19;;;;;;;;;;;;;;;20.67;100.00;99635.69;5039397;28;19920;-45
2022/10/27 08:48:44;;;;;;;;;;;;;;;21.19;100.00;99639.31;5038850;28;20007;-45
2022/10/27 08:51:12;;;;;;;;;;;;;;;21.03;100.00;99640.31;5025836;28;20016;-45
2022/10/27 08:53:38;;;;;;;;;;;;;;;21.31;100.00;99634.09;5038084;28;19917;-44
2022/10/27 08:56:08;;;;;;;;;;;;;;;21.29;100.00;99630.75;5055426;28;19917;-45
2022/10/27 08:58:41;;;;;;;;;;;;;;;20.82;100.00;99629.47;5038045;28;20004;-45
2022/10/27 09:01:15;;;;;;;;;;;;;;;21.73;100.00;99633.97;5038943;28;20856;-45
2022/10/27 09:03:46;;;;;;;;;;;;;;;21.58;100.00;99625.38;5039679;28;19927;-45
2022/10/27 09:06:15;;;;;;;;;;;;;;;21.97;100.00;99626.22;5040018;28;19971;-45
2022/10/27 09:08:40;;;;;;;;;;;;;;;21.99;100.00;99629.56;5038663;28;20554;-45
2022/10/27 09:11:13;;;;;;;;;;;;;;;21.63;100.00;99631.13;5040791;28;19985;-45
2022/10/27 09:13:57;;;;;;;;;;;;;;;22.23;100.00;99626.19;5037960;28;19923;-45
2022/10/27 09:16:33;;;;;;;;;;;;;;;22.63;100.00;99633.88;5038999;28;19966;-44
2022/10/27 09:18:59;;;;;;;;;;;;;;;22.13;100.00;99642.56;5038167;28;20413;-45
2022/10/27 09:21:24;;;;;;;;;;;;;;;22.66;100.00;99638.91;5038484;28;19995;-45
2022/10/27 09:23:50;;;;;;;;;;;;;;;22.57;100.00;99639.56;5038707;28;21002;-45
2022/10/27 09:26:15;;;;;;;;;;;;;;;22.03;100.00;99641.53;5035980;28;19916;-45
2022/10/27 09:28:47;;;;;;;;;;;;;;;22.17;100.00;99631.84;5037070;28;19931;-45
2022/10/27 09:31:13;;;;;;;;;;;;;;;22.27;100.00;99627.66;5038151;28;19917;-45
2022/10/27 09:33:39;;;;;;;;;;;;;;;22.41;100.00;99624.91;5040083;28;19912;-45
2022/10/27 09:36:07;;;;;;;;;;;;;;;22.12;100.00;99630.41;5037966;28;20010;-45
2022/10/27 09:38:32;;;;;;;;;;;;;;;22.45;100.00;99636.84;5037420;28;19956;-45
2022/10/27 09:40:57;;;;;;;;;;;;;;;22.36;100.00;99637.50;5038792;28;20004;-45
2022/10/27 09:43:23;;;;;;;;;;;;;;;22.42;100.00;99642.34;5038220;28;19921;-45
2022/10/27 09:46:01;;;;;;;;;;;;;;;22.49;100.00;99646.19;5036649;28;19967;-45
2022/10/27 09:48:26;;;;;;;;;;;;;;;22.55;100.00;99632.63;5036597;28;19917;-45
2022/10/27 09:50:52;;;;;;;;;;;;;;;22.51;100.00;99625.94;5036566;28;19928;-45
2022/10/27 09:53:37;;;;;;;;;;;;;;;22.95;100.00;99626.28;5037176;28;19917;-45
2022/10/27 09:56:02;;;;;;;;;;;;;;;23.24;100.00;99624.16;5037248;28;19923;-45
2022/10/27 09:58:27;;;;;;;;;;;;;;;22.74;100.00;99632.16;5037854;28;19932;-45
2022/10/27 10:00:56;;;;;;;;;;;;;;;22.45;100.00;99626.34;5037559;28;19913;-45
2022/10/27 10:03:21;;;;;;;;;;;;;;;22.72;100.00;99617.47;5039773;28;19979;-46
2022/10/27 10:06:00;;;;;;;;;;;;;;;22.93;100.00;99626.38;5037785;28;20541;-45
2022/10/27 10:08:26;;;;;;;;;;;;;;;23.36;100.00;99610.09;5036015;28;20360;-45
2022/10/27 10:10:52;;;;;;;;;;;;;;;23.23;100.00;99608.50;5039138;28;20378;-46
2022/10/27 10:13:17;;;;;;;;;;;;;;;23.13;100.00;99619.69;5038632;28;20015;-45
2022/10/27 10:15:44;;;;;;;;;;;;;;;23.32;100.00;99608.63;5037300;28;20468;-45
2022/10/27 10:18:23;;;;;;;;;;;;;;;23.36;100.00;99607.47;5036111;28;19921;-46
2022/10/27 10:20:54;;;;;;;;;;;;;;;23.66;100.00;99598.19;5039002;28;19924;-45
2022/10/27 10:23:20;;;;;;;;;;;;;;;23.56;100.00;99592.81;5037461;28;20386;-45
2022/10/27 10:25:48;;;;;;;;;;;;;;;23.75;100.00;99584.34;5037287;28;19913;-45
2022/10/27 10:28:22;;;;;;;;;;;;;;;22.75;100.00;99596.22;5035879;28;20285;-44
2022/10/27 10:30:48;;;;;;;;;;;;;;;23.38;100.00;99595.03;5037439;28;19916;-44
2022/10/27 10:33:14;;;;;;;;;;;;;;;23.75;100.00;99594.88;5036827;28;19916;-45
2022/10/27 10:35:46;;;;;;;;;;;;;;;23.43;100.00;99588.59;5037392;28;19924;-45
2022/10/27 10:38:20;;;;;;;;;;;;;;;23.80;100.00;99579.56;5037998;28;19916;-47
2022/10/27 10:40:54;;;;;;;;;;;;;;;24.72;100.00;99575.84;5038659;28;19920;-45
2022/10/27 10:43:19;;;;;;;;;;;;;;;23.77;100.00;99582.44;5036150;28;20050;-46
2022/10/27 10:45:45;;;;;;;;;;;;;;;23.95;100.00;99576.72;5038369;28;20391;-45
2022/10/27 10:48:13;;;;;;;;;;;;;;;23.48;100.00;99568.06;5036209;28;20436;-44
2022/10/27 10:50:45;;;;;;;;;;;;;;;23.68;100.00;99580.50;5038259;28;20390;-45
2022/10/27 10:53:17;;;;;;;;;;;;;;;23.56;100.00;99581.44;5039167;28;19978;-45
2022/10/27 10:55:43;;;;;;;;;;;;;;;24.12;100.00;99570.94;5037196;28;19917;-46
2022/10/27 10:58:10;;;;;;;;;;;;;;;24.50;100.00;99556.56;5038219;28;19927;-45
2022/10/27 11:00:35;;;;;;;;;;;;;;;23.82;100.00;99558.41;5036696;28;20015;-45
2022/10/27 11:03:02;;;;;;;;;;;;;;;24.61;100.00;99550.41;5038638;28;19921;-45
2022/10/27 11:05:28;;;;;;;;;;;;;;;24.79;100.00;99545.41;5037695;28;19943;-45
2022/10/27 11:07:54;;;;;;;;;;;;;;;24.93;100.00;99542.50;5034875;28;20538;-45
2022/10/27 11:10:20;;;;;;;;;;;;;;;24.72;100.00;99544.25;5038558;28;20023;-47
2022/10/27 11:12:54;;;;;;;;;;;;;;;24.62;100.00;99529.19;5037126;28;19913;-45
2022/10/27 11:15:24;;;;;;;;;;;;;;;25.29;100.00;99531.63;5037158;28;19939;-46
2022/10/27 11:17:49;;;;;;;;;;;;;;;24.77;100.00;99528.91;5037693;28;20353;-45
2022/10/27 11:20:19;;;;;;;;;;;;;;;25.07;100.00;99537.88;5036239;28;19929;-45
2022/10/27 11:22:45;;;;;;;;;;;;;;;24.98;100.00;99519.22;5036663;28;19964;-45
2022/10/27 11:25:14;;;;;;;;;;;;;;;24.30;100.00;99523.06;5034207;28;20012;-46
2022/10/27 11:27:48;;;;;;;;;;;;;;;24.66;100.00;99510.53;5035257;28;19925;-46
2022/10/27 11:30:23;;;;;;;;;;;;;;;25.13;100.00;99513.63;5037017;28;20655;-45
2022/10/27 11:33:04;;;;;;;;;;;;;;;24.95;100.00;99505.44;5036032;28;19943;-45
2022/10/27 11:35:31;;;;;;;;;;;;;;;25.41;100.00;99499.81;5038104;28;19967;-45
2022/10/27 11:37:59;;;;;;;;;;;;;;;24.67;100.00;99494.59;5038125;28;20071;-45
2022/10/27 11:40:45;;;;;;;;;;;;;;;24.66;100.00;99500.00;5038116;28;19917;-45
2022/10/27 11:43:14;;;;;;;;;;;;;;;24.93;100.00;99495.06;5036954;28;19929;-45
2022/10/27 11:45:42;;;;;;;;;;;;;;;25.94;100.00;99484.75;5036114;28;20409;-45
2022/10/27 11:48:33;;;;;;;;;;;;;;;25.40;100.00;99487.56;5038841;28;20011;-45
2022/10/27 11:50:58;;;;;;;;;;;;;;;25.25;100.00;99486.25;5032739;28;20282;-45
2022/10/27 11:53:24;;;;;;;;;;;;;;;25.84;100.00;99485.53;5042259;28;19965;-44
2022/10/27 11:55:55;;;;;;;;;;;;;;;25.29;100.00;99495.56;5041282;28;19935;-46
2022/10/27 11:58:20;;;;;;;;;;;;;;;24.92;100.00;99501.28;5040509;28;19913;-45
2022/10/27 12:00:50;;;;;;;;;;;;;;;24.19;100.00;99501.06;5041756;28;20892;-46
2022/10/27 12:03:35;;;;;;;;;;;;;;;24.71;100.00;99489.91;5039665;28;19924;-46
2022/10/27 12:06:21;;;;;;;;;;;;;;;26.07;100.00;99466.84;5037329;28;19923;-45
2022/10/27 12:08:52;;;;;;;;;;;;;;;25.41;100.00;99483.16;5040352;28;20016;-45
2022/10/27 12:11:35;;;;;;;;;;;;;;;25.94;100.00;99469.72;5040919;28;19920;-46
2022/10/27 12:14:13;;;;;;;;;;;;;;;25.90;100.00;99484.16;5041825;28;19921;-47
2022/10/27 12:16:45;;;;;;;;;;;;;;;25.98;100.00;99481.69;5039675;28;19929;-46
2022/10/27 12:19:23;;;;;;;;;;;;;;;25.24;100.00;99476.66;5039527;28;20279;-46
2022/10/27 12:21:54;;;;;;;;;;;;;;;25.75;100.00;99465.22;5038828;28;19956;-45
2022/10/27 12:24:22;;;;;;;;;;;;;;;25.43;100.00;99481.19;5039550;28;20011;-46
2022/10/27 12:26:57;;;;;;;;;;;;;;;26.28;100.00;99472.84;5038925;28;20308;-46
2022/10/27 12:29:23;;;;;;;;;;;;;;;26.78;100.00;99457.84;5038361;28;19924;-46
2022/10/27 12:31:56;;;;;;;;;;;;;;;27.53;100.00;99451.63;5041262;28;19917;-46
2022/10/27 12:34:21;;;;;;;;;;;;;;;27.34;100.00;99446.41;5039522;28;19955;-45
2022/10/27 12:36:59;;;;;;;;;;;;;;;27.06;100.00;99456.09;5039608;28;19948;-45